createdAt,value
2023-05-19T00:02:33.945Z,8.73
2023-05-19T00:05:07.423Z,8.73
2023-05-19T00:07:40.413Z,8.70
2023-05-19T00:10:15.185Z,8.69
2023-05-19T00:12:47.793Z,8.65
2023-05-19T00:15:20.183Z,8.62
2023-05-19T00:17:52.438Z,8.60
2023-05-19T00:20:23.794Z,8.59
2023-05-19T00:22:54.774Z,8.58
2023-05-19T00:25:26.087Z,8.57
2023-05-19T00:27:59.268Z,8.56
2023-05-19T00:30:30.924Z,8.55
2023-05-19T00:33:02.650Z,8.56
2023-05-19T00:35:33.956Z,8.56
2023-05-19T00:38:04.945Z,8.57
2023-05-19T00:40:35.455Z,8.58
2023-05-19T00:43:08.431Z,8.55
2023-05-19T00:45:39.673Z,8.54
2023-05-19T00:48:10.920Z,8.56
2023-05-19T00:50:42.810Z,8.56
2023-05-19T00:53:16.021Z,8.57
2023-05-19T00:55:48.946Z,8.55
2023-05-19T00:58:20.308Z,8.54
2023-05-19T01:00:51.632Z,8.52
2023-05-19T01:03:23.333Z,8.54
2023-05-19T01:05:54.784Z,8.54
2023-05-19T01:08:26.225Z,8.57
2023-05-19T01:10:57.255Z,8.59
2023-05-19T01:13:28.994Z,8.59
2023-05-19T01:16:09.077Z,8.61
2023-05-19T01:18:48.735Z,8.62
2023-05-19T01:21:44.548Z,8.62
2023-05-19T01:24:35.355Z,8.60
2023-05-19T01:27:42.461Z,8.61
2023-05-19T01:30:34.915Z,8.59
2023-05-19T01:33:14.489Z,8.59
2023-05-19T01:35:47.170Z,8.59
2023-05-19T01:38:20.765Z,8.59
2023-05-19T01:40:53.454Z,8.58
2023-05-19T01:43:27.650Z,8.57
2023-05-19T01:45:59.816Z,8.55
2023-05-19T01:48:31.742Z,8.53
2023-05-19T01:51:02.666Z,8.53
2023-05-19T01:53:34.124Z,8.52
2023-05-19T01:56:06.776Z,8.49
2023-05-19T01:58:45.267Z,8.48
2023-05-19T02:01:26.744Z,8.48
2023-05-19T02:04:13.216Z,8.49
2023-05-19T02:06:49.568Z,8.49
2023-05-19T02:09:24.613Z,8.49
2023-05-19T02:12:00.421Z,8.51
2023-05-19T02:14:35.337Z,8.51
2023-05-19T02:17:07.516Z,8.52
2023-05-19T02:19:40.523Z,8.51
2023-05-19T02:22:11.769Z,8.51
2023-05-19T02:24:44.521Z,8.51
2023-05-19T02:27:16.074Z,8.50
2023-05-19T02:29:47.164Z,8.49
2023-05-19T02:32:19.229Z,8.47
2023-05-19T02:34:50.388Z,8.46
2023-05-19T02:37:24.027Z,8.44
2023-05-19T02:39:55.464Z,8.42
2023-05-19T02:42:26.701Z,8.39
2023-05-19T02:44:58.405Z,8.37
2023-05-19T02:47:30.063Z,8.34
2023-05-19T02:50:01.303Z,8.33
2023-05-19T02:52:32.525Z,8.32
2023-05-19T02:55:01.984Z,8.32
2023-05-19T02:57:34.299Z,8.30
2023-05-19T03:00:06.012Z,8.30
2023-05-19T03:02:37.582Z,8.31
2023-05-19T03:05:11.217Z,8.31
2023-05-19T03:07:42.211Z,8.30
2023-05-19T03:10:11.998Z,8.30
2023-05-19T03:12:42.875Z,8.29
2023-05-19T03:15:15.106Z,8.28
2023-05-19T03:17:46.137Z,8.27
2023-05-19T03:20:17.386Z,8.27
2023-05-19T03:22:48.448Z,8.27
2023-05-19T03:25:19.738Z,8.28
2023-05-19T03:27:50.808Z,8.29
2023-05-19T03:30:22.388Z,8.29
2023-05-19T03:32:53.542Z,8.29
2023-05-19T03:35:25.250Z,8.30
2023-05-19T03:37:56.295Z,8.30
2023-05-19T03:40:27.470Z,8.31
2023-05-19T03:42:58.584Z,8.32
2023-05-19T03:45:29.811Z,8.34
2023-05-19T03:48:01.058Z,8.35
2023-05-19T03:50:34.191Z,8.37
2023-05-19T03:53:06.362Z,8.38
2023-05-19T03:55:37.783Z,8.39
2023-05-19T03:58:08.806Z,8.41
2023-05-19T04:00:39.799Z,8.44
2023-05-19T04:03:09.394Z,8.46
2023-05-19T04:05:40.472Z,8.46
2023-05-19T04:08:11.518Z,8.49
2023-05-19T04:10:42.719Z,8.52
2023-05-19T04:13:14.027Z,8.56
2023-05-19T04:15:43.510Z,8.60
2023-05-19T04:18:14.580Z,8.63
2023-05-19T04:20:46.081Z,8.67
2023-05-19T04:23:17.167Z,8.71
2023-05-19T04:25:49.759Z,8.73
2023-05-19T04:28:21.714Z,8.76
2023-05-19T04:30:52.894Z,8.78
2023-05-19T04:33:24.861Z,8.80
2023-05-19T04:35:55.897Z,8.82
2023-05-19T04:38:30.137Z,8.86
2023-05-19T04:41:01.892Z,8.89
2023-05-19T04:43:32.975Z,8.94
2023-05-19T04:46:02.317Z,8.99
2023-05-19T04:48:33.522Z,8.99
2023-05-19T04:51:05.327Z,9.02
2023-05-19T04:53:36.739Z,9.06
2023-05-19T04:56:08.680Z,9.07
2023-05-19T04:58:41.910Z,9.08
2023-05-19T05:01:15.939Z,9.11
2023-05-19T05:03:47.171Z,9.13
2023-05-19T05:06:16.603Z,9.15
2023-05-19T05:08:47.725Z,9.16
2023-05-19T05:11:19.741Z,9.18
2023-05-19T05:13:52.003Z,9.21
2023-05-19T05:16:24.374Z,9.24
2023-05-19T05:18:57.599Z,9.26
2023-05-19T05:21:29.727Z,9.25
2023-05-19T05:24:01.854Z,9.27
2023-05-19T05:26:34.935Z,9.32
2023-05-19T05:29:06.554Z,9.40
2023-05-19T05:31:38.138Z,9.49
2023-05-19T05:34:13.225Z,9.62
2023-05-19T05:36:44.277Z,9.74
2023-05-19T05:39:13.900Z,9.85
2023-05-19T05:41:44.877Z,9.96
2023-05-19T05:44:15.910Z,10.07
2023-05-19T05:46:48.475Z,10.15
2023-05-19T05:49:20.544Z,10.25
2023-05-19T05:52:04.849Z,10.32
2023-05-19T05:54:37.538Z,10.41
2023-05-19T05:57:10.176Z,10.50
2023-05-19T05:59:41.745Z,10.57
2023-05-19T06:02:13.144Z,10.59
2023-05-19T06:04:45.195Z,10.59
2023-05-19T06:07:16.309Z,10.64
2023-05-19T06:09:47.402Z,10.68
2023-05-19T06:12:18.502Z,10.70
2023-05-19T06:14:49.750Z,10.71
2023-05-19T06:17:20.681Z,10.71
2023-05-19T06:19:51.850Z,10.71
2023-05-19T06:22:23.104Z,10.73
2023-05-19T06:24:54.169Z,10.70
2023-05-19T06:27:25.181Z,10.66
2023-05-19T06:29:56.428Z,10.70
2023-05-19T06:32:29.743Z,10.77
2023-05-19T06:35:00.925Z,10.78
2023-05-19T06:37:32.018Z,10.81
2023-05-19T06:40:03.953Z,10.82
2023-05-19T06:42:35.333Z,10.88
2023-05-19T06:45:06.968Z,10.90
2023-05-19T06:47:37.937Z,10.93
2023-05-19T06:50:10.182Z,10.91
2023-05-19T06:52:41.367Z,10.93
2023-05-19T06:55:14.009Z,10.96
2023-05-19T06:57:45.602Z,11.00
2023-05-19T07:00:19.972Z,11.05
2023-05-19T07:02:53.323Z,11.13
2023-05-19T07:05:25.137Z,11.22
2023-05-19T07:07:56.224Z,11.30
2023-05-19T07:10:25.634Z,11.37
2023-05-19T07:12:55.061Z,11.36
2023-05-19T07:15:26.382Z,11.40
2023-05-19T07:17:57.471Z,11.40
2023-05-19T07:20:28.760Z,11.35
2023-05-19T07:22:59.787Z,11.33
2023-05-19T07:25:31.217Z,11.37
2023-05-19T07:28:02.642Z,11.42
2023-05-19T07:30:34.397Z,11.43
2023-05-19T07:33:05.736Z,11.44
2023-05-19T07:35:36.910Z,11.51
2023-05-19T07:38:08.407Z,11.64
2023-05-19T07:40:39.372Z,11.76
2023-05-19T07:43:11.386Z,11.89
2023-05-19T07:45:42.537Z,11.92
2023-05-19T07:48:13.892Z,11.88
2023-05-19T07:50:45.232Z,11.78
2023-05-19T07:53:16.739Z,11.79
2023-05-19T07:55:49.594Z,11.78
2023-05-19T07:58:20.804Z,11.73
2023-05-19T08:00:51.880Z,11.70
2023-05-19T08:03:23.849Z,11.73
2023-05-19T08:05:55.594Z,11.80
2023-05-19T08:08:27.016Z,11.86
2023-05-19T08:10:57.921Z,11.94
2023-05-19T08:13:28.997Z,12.02
2023-05-19T08:16:00.811Z,12.17
2023-05-19T08:18:32.154Z,12.30
2023-05-19T08:21:03.647Z,12.41
2023-05-19T08:23:34.782Z,12.51
2023-05-19T08:26:05.966Z,12.62
2023-05-19T08:28:36.903Z,12.69
2023-05-19T08:31:08.136Z,12.65
2023-05-19T08:33:39.206Z,12.64
2023-05-19T08:36:09.070Z,12.66
2023-05-19T08:38:40.140Z,12.65
2023-05-19T08:41:11.353Z,12.72
2023-05-19T08:43:42.578Z,12.79
2023-05-19T08:46:16.990Z,12.91
2023-05-19T08:48:55.246Z,13.01
2023-05-19T08:51:34.782Z,13.06
2023-05-19T08:54:13.953Z,13.10
2023-05-19T08:56:46.616Z,13.10
2023-05-19T08:59:18.404Z,13.13
2023-05-19T09:01:50.157Z,13.13
2023-05-19T09:04:22.338Z,13.10
2023-05-19T09:06:53.633Z,13.12
2023-05-19T09:09:24.915Z,13.14
2023-05-19T09:11:56.350Z,13.19
2023-05-19T09:14:27.886Z,13.26
2023-05-19T09:16:59.031Z,13.34
2023-05-19T09:19:31.532Z,13.41
2023-05-19T09:22:04.789Z,13.49
2023-05-19T09:24:37.970Z,13.59
2023-05-19T09:27:09.304Z,13.77
2023-05-19T09:29:40.418Z,14.00
2023-05-19T09:32:11.563Z,14.20
2023-05-19T09:34:44.393Z,14.18
2023-05-19T09:37:16.946Z,14.13
2023-05-19T09:39:52.153Z,14.07
2023-05-19T09:42:29.900Z,14.12
2023-05-19T09:45:04.983Z,14.22
2023-05-19T09:47:38.748Z,14.25
2023-05-19T09:50:12.515Z,14.27
2023-05-19T09:52:45.859Z,14.32
2023-05-19T09:55:18.115Z,14.30
2023-05-19T09:57:49.192Z,14.39
2023-05-19T10:00:21.524Z,14.49
2023-05-19T10:02:53.024Z,14.58
2023-05-19T10:05:24.928Z,14.56
2023-05-19T10:07:56.861Z,14.52
2023-05-19T10:10:28.891Z,14.59
2023-05-19T10:13:04.147Z,14.74
2023-05-19T10:15:46.687Z,14.82
2023-05-19T10:18:29.931Z,14.85
2023-05-19T10:21:02.347Z,14.82
2023-05-19T10:23:33.836Z,14.76
2023-05-19T10:26:07.804Z,14.66
2023-05-19T10:28:42.191Z,14.60
2023-05-19T10:31:19.738Z,14.70
2023-05-19T10:34:08.919Z,14.88
2023-05-19T10:36:48.864Z,14.99
2023-05-19T10:39:24.094Z,15.03
2023-05-19T10:42:05.244Z,15.12
2023-05-19T10:44:48.136Z,15.21
2023-05-19T10:47:26.373Z,15.30
2023-05-19T10:49:57.908Z,15.24
2023-05-19T10:52:33.109Z,15.17
2023-05-19T10:55:05.366Z,15.12
2023-05-19T10:57:36.831Z,15.12
2023-05-19T11:00:31.783Z,15.20
2023-05-19T11:03:17.799Z,15.30
2023-05-19T11:05:51.075Z,15.25
2023-05-19T11:08:36.549Z,15.23
2023-05-19T11:11:17.610Z,15.31
2023-05-19T11:13:55.139Z,15.38
2023-05-19T11:16:33.658Z,15.48
2023-05-19T11:19:07.450Z,15.52
2023-05-19T11:21:55.028Z,15.49
2023-05-19T11:24:45.919Z,15.46
2023-05-19T11:27:28.660Z,15.37
2023-05-19T11:30:02.008Z,15.30
2023-05-19T11:32:35.887Z,15.27
2023-05-19T11:35:08.292Z,15.21
2023-05-19T11:37:40.545Z,15.10
2023-05-19T11:40:14.496Z,15.07
2023-05-19T11:42:45.711Z,15.18
2023-05-19T11:45:16.655Z,15.37
2023-05-19T11:48:01.227Z,15.53
2023-05-19T11:50:36.942Z,15.58
2023-05-19T11:53:08.209Z,15.48
2023-05-19T11:55:46.687Z,15.45
2023-05-19T11:58:18.314Z,15.47
2023-05-19T12:00:49.187Z,15.44
2023-05-19T12:03:26.707Z,15.40
2023-05-19T12:05:58.059Z,15.44
2023-05-19T12:08:30.622Z,15.48
2023-05-19T12:11:02.138Z,15.38
2023-05-19T12:13:33.289Z,15.28
2023-05-19T12:16:06.823Z,15.20
2023-05-19T12:18:42.100Z,15.22
2023-05-19T12:21:13.348Z,15.30
2023-05-19T12:23:44.478Z,15.29
2023-05-19T12:26:16.344Z,15.23
2023-05-19T12:28:49.234Z,15.19
2023-05-19T12:31:21.257Z,15.16
2023-05-19T12:33:53.198Z,15.14
2023-05-19T12:36:27.141Z,15.19
2023-05-19T12:38:58.812Z,15.11
2023-05-19T12:41:30.358Z,15.04
2023-05-19T12:44:01.588Z,15.04
2023-05-19T12:46:35.288Z,15.06
2023-05-19T12:49:06.480Z,15.09
2023-05-19T12:51:37.779Z,15.06
2023-05-19T12:54:09.362Z,15.09
2023-05-19T12:56:40.234Z,15.23
2023-05-19T12:59:11.355Z,15.38
2023-05-19T13:01:42.474Z,15.56
2023-05-19T13:04:13.679Z,15.75
2023-05-19T13:06:45.088Z,15.93
2023-05-19T13:09:17.394Z,16.05
2023-05-19T13:11:51.263Z,15.97
2023-05-19T13:14:23.297Z,15.75
2023-05-19T13:16:54.445Z,15.72
2023-05-19T13:19:26.248Z,15.82
2023-05-19T13:21:57.565Z,15.71
2023-05-19T13:24:28.782Z,15.50
2023-05-19T13:26:59.852Z,15.40
2023-05-19T13:29:31.677Z,15.36
2023-05-19T13:32:02.564Z,15.41
2023-05-19T13:34:33.866Z,15.42
2023-05-19T13:37:06.194Z,15.45
2023-05-19T13:39:38.964Z,15.50
2023-05-19T13:42:10.033Z,15.55
2023-05-19T13:44:41.083Z,15.56
2023-05-19T13:47:12.606Z,15.49
2023-05-19T13:49:43.871Z,15.25
2023-05-19T13:52:33.580Z,15.12
2023-05-19T13:55:05.937Z,15.00
2023-05-19T13:57:38.340Z,14.96
2023-05-19T14:00:11.867Z,14.87
2023-05-19T14:02:43.144Z,14.69
2023-05-19T14:05:14.656Z,14.55
2023-05-19T14:07:49.626Z,14.42
2023-05-19T14:10:20.605Z,14.31
2023-05-19T14:15:30.062Z,14.38
2023-05-19T14:18:01.351Z,14.45
2023-05-19T14:20:32.882Z,14.54
2023-05-19T14:23:04.091Z,14.61
2023-05-19T14:25:35.214Z,14.66
2023-05-19T14:28:06.810Z,14.62
2023-05-19T14:30:38.076Z,14.52
2023-05-19T14:33:09.585Z,14.38
2023-05-19T14:35:40.733Z,14.34
2023-05-19T14:38:11.930Z,14.28
2023-05-19T14:40:43.162Z,14.15
2023-05-19T14:43:14.287Z,14.05
2023-05-19T14:45:45.431Z,14.02
2023-05-19T14:48:16.537Z,14.04
2023-05-19T14:50:49.444Z,14.00
2023-05-19T14:53:20.799Z,13.95
2023-05-19T14:55:52.306Z,13.89
2023-05-19T14:58:28.825Z,13.87
2023-05-19T15:01:01.577Z,13.95
2023-05-19T15:03:32.739Z,13.97
2023-05-19T15:06:03.804Z,13.99
2023-05-19T15:08:37.704Z,13.99
2023-05-19T15:11:08.982Z,13.97
2023-05-19T15:13:39.991Z,13.96
2023-05-19T15:16:17.382Z,13.85
2023-05-19T15:18:49.149Z,13.72
2023-05-19T15:21:20.469Z,13.65
2023-05-19T15:23:51.751Z,13.61
2023-05-19T15:26:23.282Z,13.52
2023-05-19T15:28:56.107Z,13.34
2023-05-19T15:31:27.890Z,13.18
2023-05-19T15:33:59.328Z,13.06
2023-05-19T15:36:30.275Z,12.98
2023-05-19T15:39:01.394Z,12.90
2023-05-19T15:41:33.810Z,12.85
2023-05-19T15:44:06.754Z,12.82
2023-05-19T15:46:37.669Z,12.87
2023-05-19T15:49:09.226Z,12.88
2023-05-19T15:51:44.565Z,12.91
2023-05-19T15:54:16.046Z,12.98
2023-05-19T15:56:46.994Z,13.04
2023-05-19T15:59:18.101Z,13.10
2023-05-19T16:01:50.575Z,13.17
2023-05-19T16:04:23.845Z,13.26
2023-05-19T16:06:54.806Z,13.28
2023-05-19T16:09:26.543Z,13.26
2023-05-19T16:11:57.654Z,13.31
2023-05-19T16:14:31.176Z,13.51
2023-05-19T16:17:02.140Z,13.75
2023-05-19T16:19:33.798Z,14.11
2023-05-19T16:22:05.203Z,14.53
2023-05-19T16:24:36.301Z,15.00
2023-05-19T16:27:07.918Z,15.51
2023-05-19T16:29:39.443Z,15.87
2023-05-19T16:32:11.290Z,16.00
2023-05-19T16:34:42.393Z,16.14
2023-05-19T16:37:13.474Z,16.01
2023-05-19T16:39:45.011Z,15.91
2023-05-19T16:42:16.099Z,15.82
2023-05-19T16:44:47.100Z,15.70
2023-05-19T16:47:18.621Z,15.63
2023-05-19T16:49:49.979Z,15.60
2023-05-19T16:52:21.320Z,15.61
2023-05-19T16:54:52.794Z,15.60
2023-05-19T16:57:24.111Z,15.66
2023-05-19T16:59:55.183Z,15.69
2023-05-19T17:02:26.279Z,15.44
2023-05-19T17:04:57.675Z,15.20
2023-05-19T17:07:29.216Z,15.03
2023-05-19T17:10:00.398Z,14.92
2023-05-19T17:12:31.322Z,14.87
2023-05-19T17:15:02.480Z,14.92
2023-05-19T17:17:33.949Z,14.93
2023-05-19T17:20:05.529Z,14.96
2023-05-19T17:22:37.063Z,14.89
2023-05-19T17:25:09.948Z,14.80
2023-05-19T17:27:41.099Z,14.74
2023-05-19T17:30:14.113Z,14.66
2023-05-19T17:32:45.677Z,14.59
2023-05-19T17:35:17.117Z,14.45
2023-05-19T17:37:48.565Z,14.23
2023-05-19T17:40:20.508Z,14.07
2023-05-19T17:42:51.701Z,13.93
2023-05-19T17:45:23.032Z,13.81
2023-05-19T17:47:54.228Z,13.72
2023-05-19T17:50:25.597Z,13.57
2023-05-19T17:52:58.362Z,13.48
2023-05-19T17:55:31.629Z,13.45
2023-05-19T17:58:03.818Z,13.32
2023-05-19T18:00:35.884Z,13.17
2023-05-19T18:03:08.320Z,13.05
2023-05-19T18:05:43.236Z,12.90
2023-05-19T18:08:15.154Z,12.68
2023-05-19T18:10:48.689Z,12.48
2023-05-19T18:13:19.810Z,12.32
2023-05-19T18:15:52.757Z,12.16
2023-05-19T18:18:23.831Z,12.01
2023-05-19T18:20:54.999Z,11.84
2023-05-19T18:23:26.591Z,11.72
2023-05-19T18:25:57.668Z,11.63
2023-05-19T18:28:29.787Z,11.57
2023-05-19T18:31:05.100Z,11.50
2023-05-19T18:33:36.304Z,11.44
2023-05-19T18:36:08.980Z,11.40
2023-05-19T18:38:40.654Z,11.35
2023-05-19T18:41:11.687Z,11.31
2023-05-19T18:43:42.693Z,11.28
2023-05-19T18:46:14.107Z,11.23
2023-05-19T18:48:45.292Z,11.18
2023-05-19T18:51:18.625Z,11.15
2023-05-19T18:53:50.951Z,11.13
2023-05-19T18:56:27.264Z,11.11
2023-05-19T18:58:58.318Z,11.09
2023-05-19T19:01:29.619Z,11.08
2023-05-19T19:04:01.118Z,11.07
2023-05-19T19:06:32.387Z,11.05
2023-05-19T19:09:03.480Z,11.03
2023-05-19T19:11:34.596Z,11.03
2023-05-19T19:14:06.045Z,11.01
2023-05-19T19:16:37.844Z,11.01
2023-05-19T19:19:09.996Z,11.00
2023-05-19T19:21:41.991Z,10.99
2023-05-19T19:24:14.126Z,10.99
2023-05-19T19:26:45.651Z,10.98
2023-05-19T19:29:18.235Z,10.96
2023-05-19T19:31:49.589Z,10.94
2023-05-19T19:34:22.459Z,10.92
2023-05-19T19:36:53.624Z,10.91
2023-05-19T19:39:24.795Z,10.90
2023-05-19T19:41:56.232Z,10.91
2023-05-19T19:44:27.306Z,10.91
2023-05-19T19:46:58.247Z,10.92
2023-05-19T19:49:29.776Z,10.92
2023-05-19T19:52:00.999Z,10.91
2023-05-19T19:54:32.773Z,10.89
2023-05-19T19:57:03.823Z,10.88
2023-05-19T19:59:34.988Z,10.86
2023-05-19T20:02:06.046Z,10.87
2023-05-19T20:04:37.705Z,10.89
2023-05-19T20:07:09.218Z,10.90
2023-05-19T20:09:40.596Z,10.90
2023-05-19T20:12:11.946Z,10.92
2023-05-19T20:14:43.383Z,10.92
2023-05-19T20:17:14.641Z,10.92
2023-05-19T20:19:45.972Z,10.94
2023-05-19T20:22:17.586Z,10.96
2023-05-19T20:24:48.698Z,10.95
2023-05-19T20:27:19.673Z,10.96
2023-05-19T20:29:51.057Z,10.96
2023-05-19T20:32:22.236Z,10.94
2023-05-19T20:34:53.217Z,10.93
2023-05-19T20:37:24.963Z,10.92
2023-05-19T20:39:56.103Z,10.92
2023-05-19T20:42:25.390Z,10.92
2023-05-19T20:44:56.540Z,10.90
2023-05-19T20:47:30.312Z,10.88
2023-05-19T20:50:01.692Z,10.87
2023-05-19T20:52:34.354Z,10.85
2023-05-19T20:55:05.852Z,10.84
2023-05-19T20:57:37.360Z,10.83
2023-05-19T21:00:10.984Z,10.83
2023-05-19T21:02:42.823Z,10.81
2023-05-19T21:05:14.944Z,10.78
2023-05-19T21:07:46.256Z,10.76
2023-05-19T21:10:18.053Z,10.73
2023-05-19T21:12:49.140Z,10.68
2023-05-19T21:15:21.425Z,10.65
2023-05-19T21:17:52.678Z,10.61
2023-05-19T21:20:24.258Z,10.58
2023-05-19T21:22:55.461Z,10.56
2023-05-19T21:25:26.747Z,10.53
2023-05-19T21:27:58.266Z,10.49
2023-05-19T21:30:29.204Z,10.46
2023-05-19T21:32:58.690Z,10.45
2023-05-19T21:35:28.202Z,10.41
2023-05-19T21:38:03.906Z,10.39
2023-05-19T21:40:40.182Z,10.39
2023-05-19T21:43:12.673Z,10.38
2023-05-19T21:45:43.847Z,10.38
2023-05-19T21:48:15.184Z,10.39
2023-05-19T21:50:46.432Z,10.38
2023-05-19T21:53:17.577Z,10.37
2023-05-19T21:55:49.787Z,10.37
2023-05-19T21:58:21.220Z,10.37
2023-05-19T22:00:54.552Z,10.37
2023-05-19T22:03:27.173Z,10.35
2023-05-19T22:05:58.851Z,10.34
2023-05-19T22:08:30.362Z,10.34
2023-05-19T22:11:01.978Z,10.31
2023-05-19T22:13:33.996Z,10.31
2023-05-19T22:16:05.651Z,10.29
2023-05-19T22:18:36.942Z,10.28
2023-05-19T22:21:08.305Z,10.32
2023-05-19T22:23:39.261Z,10.34
2023-05-19T22:26:10.296Z,10.36
2023-05-19T22:28:39.673Z,10.38
2023-05-19T22:31:09.321Z,10.38
2023-05-19T22:33:40.449Z,10.38
2023-05-19T22:36:11.700Z,10.41
2023-05-19T22:38:42.919Z,10.43
2023-05-19T22:41:14.067Z,10.45
2023-05-19T22:43:45.198Z,10.47
2023-05-19T22:46:16.380Z,10.49
2023-05-19T22:48:47.394Z,10.52
2023-05-19T22:51:16.867Z,10.54
2023-05-19T22:53:48.565Z,10.55
2023-05-19T22:56:19.669Z,10.56
2023-05-19T22:58:50.963Z,10.58
2023-05-19T23:01:22.045Z,10.59
2023-05-19T23:03:51.539Z,10.60
2023-05-19T23:06:22.706Z,10.60
2023-05-19T23:09:05.278Z,10.60
2023-05-19T23:11:36.852Z,10.60
2023-05-19T23:14:07.713Z,10.60
2023-05-19T23:16:39.935Z,10.60
2023-05-19T23:19:11.209Z,10.59
2023-05-19T23:21:42.260Z,10.59
2023-05-19T23:24:13.434Z,10.60
2023-05-19T23:26:44.568Z,10.62
2023-05-19T23:29:16.314Z,10.63
2023-05-19T23:31:47.411Z,10.64
2023-05-19T23:34:18.593Z,10.66
2023-05-19T23:36:49.911Z,10.66
2023-05-19T23:39:22.022Z,10.66
2023-05-19T23:41:53.208Z,10.66
2023-05-19T23:44:24.162Z,10.66
2023-05-19T23:46:55.559Z,10.66
2023-05-19T23:49:27.103Z,10.65
2023-05-19T23:51:58.277Z,10.64
2023-05-19T23:54:30.386Z,10.62
2023-05-19T23:57:02.509Z,10.60
2023-05-19T23:59:33.524Z,10.59
